Time;durP1;ratioP1;P1;durP2;ratioP2;P2;SDS_P1;SDS_P2;PMS_P1;PMS_P2;Temp;Humidity;BMP_temperature;BMP_pressure;BME280_temperature;BME280_humidity;BME280_pressure;Samples;Min_cycle;Max_cycle;Signal;HPM_P1;HPM_P2
2022/01/27 00:01:48;;;;;;;37.15;17.70;;;2.10;99.90;;;;;;4285438;28;10000618;-75
2022/01/27 00:04:23;;;;;;;39.15;18.75;;;2.10;99.90;;;;;;4973954;28;20034;-75
2022/01/27 00:06:49;;;;;;;36.03;16.35;;;2.10;99.90;;;;;;4980914;28;20022;-76
2022/01/27 00:09:25;;;;;;;38.65;17.88;;;2.10;99.90;;;;;;4979204;28;20220;-75
2022/01/27 00:11:50;;;;;;;35.75;16.15;;;2.00;99.90;;;;;;4984115;28;20058;-76
2022/01/27 00:14:19;;;;;;;33.60;16.75;;;2.00;99.90;;;;;;4986735;28;20562;-76
2022/01/27 00:16:54;;;;;;;35.15;15.50;;;2.10;99.90;;;;;;4973159;28;20027;-75
2022/01/27 00:19:19;;;;;;;32.13;15.70;;;2.10;99.90;;;;;;4985019;28;20026;-76
2022/01/27 00:21:45;;;;;;;40.80;17.42;;;2.10;99.90;;;;;;4977624;28;20369;-76
2022/01/27 00:24:11;;;;;;;33.40;16.20;;;2.10;99.90;;;;;;4980800;28;20029;-76
2022/01/27 00:26:36;;;;;;;32.22;15.43;;;2.10;99.90;;;;;;4982648;28;20031;-76
2022/01/27 00:29:02;;;;;;;35.35;16.17;;;2.10;99.90;;;;;;4977130;28;20523;-75
2022/01/27 00:31:28;;;;;;;35.25;16.23;;;2.10;99.90;;;;;;4983575;28;20037;-76
2022/01/27 00:33:54;;;;;;;30.60;16.00;;;2.00;99.90;;;;;;4988938;28;20034;-76
2022/01/27 00:36:20;;;;;;;31.35;14.90;;;2.00;99.90;;;;;;4977139;28;20058;-75
2022/01/27 00:38:46;;;;;;;32.92;14.77;;;2.00;99.90;;;;;;4977333;28;20519;-75
2022/01/27 00:41:13;;;;;;;29.27;14.43;;;2.10;99.90;;;;;;4988074;28;20422;-76
2022/01/27 00:43:39;;;;;;;31.80;14.48;;;2.10;99.90;;;;;;4973162;28;20438;-76
2022/01/27 00:46:10;;;;;;;32.78;14.63;;;2.10;99.90;;;;;;4982002;28;20038;-76
2022/01/27 00:48:36;;;;;;;27.50;13.95;;;2.10;99.90;;;;;;4981239;28;20027;-76
2022/01/27 00:51:04;;;;;;;28.52;13.88;;;2.00;99.90;;;;;;4987573;28;20033;-75
2022/01/27 00:53:46;;;;;;;25.52;13.10;;;2.00;99.90;;;;;;4982540;28;20038;-76
2022/01/27 00:56:23;;;;;;;23.38;12.13;;;2.00;99.90;;;;;;4983058;28;20113;-75
2022/01/27 00:59:00;;;;;;;27.55;13.02;;;2.00;99.90;;;;;;4973543;28;20041;-76
2022/01/27 01:01:33;;;;;;;23.70;12.70;;;2.00;99.90;;;;;;4983592;28;20260;-75
2022/01/27 01:04:04;;;;;;;28.10;13.32;;;2.00;99.90;;;;;;4983208;28;20034;-75
2022/01/27 01:16:54;;;;;;;29.15;13.95;;;2.00;99.90;;;;;;4987320;28;20045;-75
2022/01/27 01:32:36;;;;;;;28.70;13.88;;;2.00;99.90;;;;;;4975757;28;20027;-76
2022/01/27 01:35:06;;;;;;;30.77;14.40;;;2.00;99.90;;;;;;4980075;28;20050;-76
2022/01/27 01:37:37;;;;;;;30.67;14.57;;;2.00;99.90;;;;;;4981941;28;20524;-76
2022/01/27 01:40:12;;;;;;;28.42;14.50;;;2.00;99.90;;;;;;4976484;28;20030;-76
2022/01/27 01:42:37;;;;;;;30.65;13.32;;;1.90;99.90;;;;;;4985286;28;20736;-76
2022/01/27 01:45:06;;;;;;;25.50;13.15;;;1.90;99.90;;;;;;4980674;28;20034;-75
2022/01/27 01:47:32;;;;;;;31.02;14.45;;;2.00;99.90;;;;;;4980379;28;20030;-75
2022/01/27 01:49:58;;;;;;;30.17;14.60;;;2.00;99.90;;;;;;4983159;28;20034;-76
2022/01/27 01:52:25;;;;;;;33.80;15.18;;;2.00;99.90;;;;;;4978873;28;20622;-76
2022/01/27 01:54:51;;;;;;;30.83;14.15;;;1.90;99.90;;;;;;4973695;28;20030;-76
2022/01/27 01:57:16;;;;;;;34.97;15.68;;;1.90;99.90;;;;;;4973305;28;20513;-76
2022/01/27 01:59:42;;;;;;;34.78;16.30;;;1.90;99.90;;;;;;4973757;28;20038;-75
2022/01/27 02:02:12;;;;;;;34.67;15.88;;;1.90;99.90;;;;;;4977159;28;20041;-76
2022/01/27 02:04:38;;;;;;;31.05;14.88;;;1.90;99.90;;;;;;4974950;28;20070;-76
2022/01/27 02:07:10;;;;;;;30.40;14.38;;;1.90;99.90;;;;;;4982142;28;20182;-75
2022/01/27 02:18:00;;;;;;;27.02;13.77;;;1.90;99.90;;;;;;4977649;28;20101;-75
2022/01/27 02:20:26;;;;;;;28.73;14.45;;;2.00;99.90;;;;;;4981806;28;20110;-75
2022/01/27 02:22:52;;;;;;;21.90;11.23;;;2.00;99.90;;;;;;4977715;28;20472;-75
2022/01/27 02:25:18;;;;;;;21.20;11.38;;;2.00;99.90;;;;;;4982555;28;20407;-75
2022/01/27 02:27:44;;;;;;;21.75;12.13;;;2.00;99.90;;;;;;4984583;28;20034;-75
2022/01/27 02:30:10;;;;;;;21.73;11.45;;;2.00;99.90;;;;;;4980505;28;20035;-75
2022/01/27 02:32:36;;;;;;;25.42;12.65;;;2.00;99.90;;;;;;4978846;28;20506;-75
2022/01/27 02:35:03;;;;;;;23.48;12.40;;;2.00;99.90;;;;;;4979394;28;20034;-75
2022/01/27 02:37:29;;;;;;;25.83;12.25;;;2.00;99.90;;;;;;4981686;28;20117;-75
2022/01/27 02:39:55;;;;;;;22.77;12.55;;;2.00;99.90;;;;;;4978073;28;20126;-75
2022/01/27 02:42:25;;;;;;;23.90;12.65;;;2.00;99.90;;;;;;4982111;28;20032;-76
2022/01/27 02:44:53;;;;;;;28.10;13.73;;;2.00;99.90;;;;;;4984692;28;20089;-75
2022/01/27 02:47:21;;;;;;;26.23;13.75;;;2.00;99.90;;;;;;4985340;28;20030;-75
2022/01/27 02:49:47;;;;;;;26.02;13.75;;;1.90;99.90;;;;;;4986698;28;20113;-75
2022/01/27 02:52:13;;;;;;;29.45;14.18;;;1.90;99.90;;;;;;4988086;28;20022;-75
2022/01/27 02:54:39;;;;;;;27.90;13.80;;;1.90;99.90;;;;;;4981883;28;20030;-75
2022/01/27 02:57:05;;;;;;;29.27;14.15;;;1.90;99.90;;;;;;4977590;28;20026;-76
2022/01/27 02:59:31;;;;;;;26.98;13.32;;;1.90;99.90;;;;;;4982067;28;20036;-75
2022/01/27 03:01:57;;;;;;;26.20;13.75;;;1.90;99.90;;;;;;4982227;28;20026;-76
2022/01/27 03:04:24;;;;;;;27.33;14.30;;;1.90;99.90;;;;;;4988103;28;20019;-76
2022/01/27 03:06:51;;;;;;;31.33;15.10;;;1.90;99.90;;;;;;4987841;28;20562;-76
2022/01/27 03:09:16;;;;;;;28.90;15.57;;;2.00;99.90;;;;;;4978391;28;20029;-76
2022/01/27 03:11:47;;;;;;;28.23;14.18;;;2.00;99.90;;;;;;4979250;28;20683;-76
2022/01/27 03:14:22;;;;;;;27.90;14.30;;;2.00;99.90;;;;;;4986416;28;20027;-76
2022/01/27 03:16:51;;;;;;;28.38;14.63;;;2.00;99.90;;;;;;4977084;28;20030;-76
2022/01/27 03:19:17;;;;;;;31.60;14.32;;;1.90;99.90;;;;;;4981265;28;20030;-76
2022/01/27 03:21:43;;;;;;;29.83;14.48;;;1.90;99.90;;;;;;4985313;28;20036;-75
2022/01/27 03:24:08;;;;;;;32.10;15.82;;;1.90;99.90;;;;;;4975444;28;20026;-76
2022/01/27 03:26:34;;;;;;;32.33;16.75;;;1.90;99.90;;;;;;4977413;28;20173;-76
2022/01/27 03:29:00;;;;;;;32.53;16.25;;;1.90;99.90;;;;;;4979433;28;20054;-76
2022/01/27 03:31:26;;;;;;;30.83;15.90;;;1.90;99.90;;;;;;4980446;28;20030;-75
2022/01/27 03:33:53;;;;;;;31.27;15.98;;;1.90;99.90;;;;;;4976422;28;20038;-75
2022/01/27 03:36:19;;;;;;;38.85;18.02;;;1.90;99.90;;;;;;4980472;28;20035;-75
2022/01/27 03:38:45;;;;;;;37.25;17.55;;;1.90;99.90;;;;;;4984152;28;20084;-76
2022/01/27 03:41:12;;;;;;;35.10;17.48;;;1.90;99.90;;;;;;4983369;28;20033;-75
2022/01/27 03:43:39;;;;;;;33.40;17.27;;;1.90;99.90;;;;;;4985265;28;20037;-75
2022/01/27 03:46:06;;;;;;;39.72;18.70;;;1.90;99.90;;;;;;4982483;28;20396;-75
2022/01/27 03:48:32;;;;;;;35.20;18.08;;;1.90;99.90;;;;;;4984352;28;20031;-75
2022/01/27 03:50:58;;;;;;;36.15;18.10;;;1.90;99.90;;;;;;4978842;28;20184;-75
2022/01/27 03:53:24;;;;;;;33.90;17.60;;;1.90;99.90;;;;;;4983057;28;20118;-76
2022/01/27 03:55:50;;;;;;;38.58;18.30;;;1.90;99.90;;;;;;4975802;28;20438;-76
2022/01/27 03:58:15;;;;;;;38.85;19.45;;;1.90;99.90;;;;;;4982671;28;20049;-75
2022/01/27 04:00:41;;;;;;;39.50;18.83;;;1.90;99.90;;;;;;4986804;28;20038;-76
2022/01/27 04:03:10;;;;;;;41.55;18.83;;;1.90;99.90;;;;;;4980806;28;20878;-75
2022/01/27 04:05:39;;;;;;;41.70;18.90;;;1.90;99.90;;;;;;4985532;28;20033;-76
2022/01/27 04:08:07;;;;;;;36.00;18.70;;;1.90;99.90;;;;;;4977432;28;20029;-76
2022/01/27 04:10:34;;;;;;;39.47;19.73;;;1.90;99.90;;;;;;4983933;28;20330;-75
2022/01/27 04:13:00;;;;;;;41.80;19.50;;;1.90;99.90;;;;;;4984521;28;20054;-76
2022/01/27 04:15:26;;;;;;;42.60;20.52;;;1.90;99.90;;;;;;4978694;28;20026;-76
2022/01/27 04:17:52;;;;;;;40.65;20.10;;;1.90;99.90;;;;;;4984499;28;20032;-76
2022/01/27 04:20:18;;;;;;;43.55;19.40;;;1.90;99.90;;;;;;4983870;28;20264;-76
2022/01/27 04:22:43;;;;;;;40.50;19.63;;;1.90;99.90;;;;;;4981524;28;20019;-76
2022/01/27 04:25:12;;;;;;;44.83;19.48;;;1.90;99.90;;;;;;4979035;28;20491;-75
2022/01/27 04:27:40;;;;;;;43.65;20.15;;;1.90;99.90;;;;;;4972455;28;20034;-76
2022/01/27 04:30:11;;;;;;;47.28;20.67;;;1.90;99.90;;;;;;4975037;28;20411;-76
2022/01/27 04:32:46;;;;;;;44.63;20.23;;;1.90;99.90;;;;;;4982268;28;20034;-76
2022/01/27 04:35:16;;;;;;;44.13;20.35;;;1.90;99.90;;;;;;4978195;28;20040;-76
2022/01/27 04:37:54;;;;;;;42.25;20.58;;;1.90;99.90;;;;;;4981485;28;20520;-76
2022/01/27 04:40:25;;;;;;;42.58;20.65;;;1.90;99.90;;;;;;4980420;28;20039;-75
2022/01/27 04:43:09;;;;;;;44.63;21.15;;;1.90;99.90;;;;;;4986573;28;20398;-76
2022/01/27 04:45:54;;;;;;;44.33;21.35;;;1.90;99.90;;;;;;4981610;28;20027;-75
2022/01/27 04:48:21;;;;;;;47.50;22.70;;;1.90;99.90;;;;;;4977692;28;20405;-75
2022/01/27 04:50:48;;;;;;;50.53;22.55;;;1.90;99.90;;;;;;4985973;28;20117;-75
2022/01/27 04:53:23;;;;;;;45.35;21.50;;;1.90;99.90;;;;;;4984344;28;20038;-75
2022/01/27 04:55:49;;;;;;;47.83;21.98;;;1.90;99.90;;;;;;4984627;28;20165;-75
2022/01/27 04:58:19;;;;;;;47.40;22.38;;;1.90;99.90;;;;;;4980639;28;20023;-75
2022/01/27 05:00:45;;;;;;;47.72;22.48;;;1.80;99.90;;;;;;4986227;28;20030;-75
2022/01/27 05:03:23;;;;;;;44.78;21.92;;;1.80;99.90;;;;;;4985957;28;20487;-75
2022/01/27 05:05:52;;;;;;;47.40;22.30;;;1.80;99.90;;;;;;4977143;28;20027;-75
2022/01/27 05:08:19;;;;;;;51.47;22.48;;;1.80;99.90;;;;;;4977761;28;20184;-76
2022/01/27 05:13:37;;;;;;;51.38;24.88;;;1.80;99.90;;;;;;4972521;28;20390;-75
2022/01/27 05:16:03;;;;;;;48.83;22.77;;;1.70;99.90;;;;;;4978008;28;20469;-75
2022/01/27 05:18:29;;;;;;;48.85;23.10;;;1.70;99.90;;;;;;4984318;28;20036;-76
2022/01/27 05:20:55;;;;;;;51.03;24.35;;;1.70;99.90;;;;;;4978843;28;20023;-75
2022/01/27 05:23:20;;;;;;;43.03;20.35;;;1.70;99.90;;;;;;4981135;28;20466;-74
2022/01/27 05:25:46;;;;;;;47.97;20.75;;;1.70;99.90;;;;;;4979803;28;20037;-75
2022/01/27 05:28:12;;;;;;;46.28;20.35;;;1.70;99.90;;;;;;4977230;28;20034;-75
2022/01/27 05:30:37;;;;;;;44.17;20.08;;;1.70;99.90;;;;;;4977050;28;20467;-75
2022/01/27 05:33:03;;;;;;;46.25;20.10;;;1.60;99.90;;;;;;4984437;28;20034;-75
2022/01/27 05:35:29;;;;;;;45.00;20.83;;;1.60;99.90;;;;;;4979093;28;20120;-75
2022/01/27 05:37:54;;;;;;;45.67;20.77;;;1.60;99.90;;;;;;4979601;28;20095;-75
2022/01/27 05:40:20;;;;;;;43.90;21.30;;;1.60;99.90;;;;;;4979513;28;20449;-75
2022/01/27 05:42:46;;;;;;;47.08;22.05;;;1.60;99.90;;;;;;4982427;28;20610;-75
2022/01/27 05:45:12;;;;;;;49.45;23.10;;;1.60;99.90;;;;;;4969627;28;20034;-75
2022/01/27 05:47:37;;;;;;;47.05;22.00;;;1.60;99.90;;;;;;4976247;28;20026;-76
2022/01/27 05:50:04;;;;;;;47.05;21.65;;;1.60;99.90;;;;;;4975832;28;20030;-75
2022/01/27 05:52:31;;;;;;;47.45;21.58;;;1.60;99.90;;;;;;4980005;28;20038;-75
2022/01/27 05:54:56;;;;;;;51.78;23.40;;;1.60;99.90;;;;;;4977734;28;20168;-75
2022/01/27 05:57:22;;;;;;;47.95;21.67;;;1.60;99.90;;;;;;4974984;28;20059;-75
2022/01/27 05:59:48;;;;;;;48.50;22.00;;;1.70;99.90;;;;;;4972079;28;20427;-75
2022/01/27 06:02:13;;;;;;;50.17;22.15;;;1.70;99.90;;;;;;4977570;28;20034;-75
2022/01/27 06:04:39;;;;;;;53.47;22.38;;;1.70;99.90;;;;;;4980844;28;20034;-75
2022/01/27 06:07:05;;;;;;;49.25;22.27;;;1.60;99.90;;;;;;4975368;28;20538;-75
2022/01/27 06:09:30;;;;;;;46.80;21.10;;;1.60;99.90;;;;;;4979007;28;20022;-75
2022/01/27 06:11:56;;;;;;;46.22;21.42;;;1.60;99.90;;;;;;4974276;28;20029;-75
2022/01/27 06:14:21;;;;;;;48.05;20.88;;;1.60;99.90;;;;;;4976386;28;20014;-75
2022/01/27 06:16:48;;;;;;;47.40;21.77;;;1.60;99.90;;;;;;4977235;28;20084;-75
2022/01/27 06:19:13;;;;;;;47.78;20.70;;;1.60;99.90;;;;;;4288742;28;10000751;-76
2022/01/27 06:21:40;;;;;;;49.13;21.10;;;1.60;99.90;;;;;;4983245;28;20176;-75
2022/01/27 06:24:06;;;;;;;47.83;20.92;;;1.60;99.90;;;;;;4991025;28;20534;-76
2022/01/27 06:26:32;;;;;;;46.88;21.83;;;1.60;99.90;;;;;;4991750;28;20057;-75
2022/01/27 06:28:58;;;;;;;48.35;21.15;;;1.60;99.90;;;;;;4991224;28;20081;-75
2022/01/27 06:31:24;;;;;;;50.70;22.80;;;1.60;99.90;;;;;;4982944;28;20141;-74
2022/01/27 06:33:52;;;;;;;54.05;23.38;;;1.60;99.90;;;;;;4983817;28;20089;-74
2022/01/27 06:36:18;;;;;;;51.03;22.30;;;1.60;99.90;;;;;;4990078;28;20828;-75
2022/01/27 06:38:43;;;;;;;52.75;22.00;;;1.60;99.90;;;;;;4989581;28;20093;-75
2022/01/27 06:41:10;;;;;;;54.13;23.65;;;1.60;99.90;;;;;;4990252;28;20038;-75
2022/01/27 06:43:36;;;;;;;47.25;21.45;;;1.60;99.90;;;;;;4996417;28;20040;-75
2022/01/27 06:46:02;;;;;;;49.67;23.55;;;1.60;99.90;;;;;;4989961;28;20124;-76
2022/01/27 06:48:27;;;;;;;51.00;21.45;;;1.60;99.90;;;;;;4992266;28;20061;-75
2022/01/27 06:50:56;;;;;;;51.70;21.45;;;1.60;99.90;;;;;;4984637;28;20057;-75
2022/01/27 06:53:22;;;;;;;50.83;21.20;;;1.60;99.90;;;;;;4972120;28;20415;-75
2022/01/27 06:55:49;;;;;;;51.28;22.77;;;1.60;99.90;;;;;;4983064;28;20026;-75
2022/01/27 06:58:15;;;;;;;48.28;21.92;;;1.60;99.90;;;;;;4973473;28;20030;-75
2022/01/27 07:00:42;;;;;;;49.05;21.95;;;1.60;99.90;;;;;;4975338;28;20073;-76
2022/01/27 07:03:08;;;;;;;50.38;21.63;;;1.60;99.90;;;;;;4972509;28;20042;-75
2022/01/27 07:05:34;;;;;;;56.13;21.88;;;1.60;99.90;;;;;;4969894;28;20023;-75
2022/01/27 07:08:00;;;;;;;51.33;21.92;;;1.60;99.90;;;;;;4976077;28;20026;-75
2022/01/27 07:10:26;;;;;;;45.67;21.98;;;1.60;99.90;;;;;;4979095;28;20533;-75
2022/01/27 07:12:52;;;;;;;55.97;22.20;;;1.50;99.90;;;;;;4980425;28;20034;-75
2022/01/27 07:15:18;;;;;;;49.60;21.60;;;1.50;99.90;;;;;;4980148;28;20034;-75
2022/01/27 07:17:44;;;;;;;49.58;21.60;;;1.50;99.90;;;;;;4972989;28;20046;-75
2022/01/27 07:20:10;;;;;;;48.05;21.42;;;1.60;99.90;;;;;;4982514;28;20022;-75
2022/01/27 07:22:37;;;;;;;46.92;21.73;;;1.60;99.90;;;;;;4986471;28;20054;-75
2022/01/27 07:25:05;;;;;;;51.65;21.17;;;1.60;99.90;;;;;;4979574;28;20502;-75
2022/01/27 07:27:31;;;;;;;49.20;21.65;;;1.60;99.90;;;;;;4978919;28;20049;-75
2022/01/27 07:29:57;;;;;;;53.33;21.63;;;1.60;99.90;;;;;;4972309;28;20141;-75
2022/01/27 07:32:23;;;;;;;45.00;20.30;;;1.60;99.90;;;;;;4975735;28;20201;-75
2022/01/27 07:34:48;;;;;;;48.80;21.92;;;1.60;99.90;;;;;;4982858;28;20720;-75
2022/01/27 07:37:14;;;;;;;47.85;21.33;;;1.60;99.90;;;;;;4981517;28;20057;-75
2022/01/27 07:39:40;;;;;;;50.33;20.83;;;1.60;99.90;;;;;;4981277;28;20030;-76
2022/01/27 07:42:06;;;;;;;51.13;20.77;;;1.60;99.90;;;;;;4976788;28;20036;-75
2022/01/27 07:44:32;;;;;;;49.42;21.35;;;1.70;99.90;;;;;;4981087;28;20026;-75
2022/01/27 07:46:58;;;;;;;49.35;21.35;;;1.60;99.90;;;;;;4980806;28;20180;-75
2022/01/27 07:49:23;;;;;;;48.25;21.67;;;1.60;99.90;;;;;;4984502;28;20046;-74
2022/01/27 07:51:49;;;;;;;52.58;21.20;;;1.60;99.90;;;;;;4982486;28;20034;-76
2022/01/27 07:54:15;;;;;;;51.63;21.20;;;1.60;99.90;;;;;;4983507;28;20030;-75
2022/01/27 07:56:40;;;;;;;49.70;21.58;;;1.70;99.90;;;;;;4983915;28;20137;-75
2022/01/27 07:59:06;;;;;;;47.83;20.85;;;1.70;99.90;;;;;;4984754;28;20081;-75
2022/01/27 08:01:31;;;;;;;53.30;21.88;;;1.70;99.90;;;;;;4980124;28;20027;-75
2022/01/27 08:03:57;;;;;;;52.75;22.45;;;1.70;99.90;;;;;;4979148;28;20030;-76
2022/01/27 08:06:23;;;;;;;57.45;22.98;;;1.70;99.90;;;;;;4984608;28;20022;-75
2022/01/27 08:08:50;;;;;;;60.08;25.95;;;1.70;99.90;;;;;;4984601;28;22432;-75
2022/01/27 08:11:17;;;;;;;63.38;29.05;;;1.80;99.90;;;;;;4994479;28;20105;-76
2022/01/27 08:13:42;;;;;;;64.00;27.40;;;1.80;99.90;;;;;;4986684;28;20054;-76
2022/01/27 08:16:08;;;;;;;63.22;26.77;;;1.80;99.90;;;;;;4981444;28;20041;-75
2022/01/27 08:18:34;;;;;;;61.28;26.67;;;1.80;99.90;;;;;;4980413;28;20391;-75
2022/01/27 08:21:00;;;;;;;59.58;25.70;;;1.80;99.90;;;;;;4982530;28;20045;-75
2022/01/27 08:23:25;;;;;;;60.78;27.60;;;1.80;99.90;;;;;;4983606;28;20497;-75
2022/01/27 08:26:01;;;;;;;57.15;24.35;;;1.80;99.90;;;;;;4981255;28;20026;-75
2022/01/27 08:28:33;;;;;;;56.75;23.75;;;1.80;99.90;;;;;;4982461;28;20483;-75
2022/01/27 08:30:59;;;;;;;59.10;23.83;;;1.80;99.90;;;;;;4981028;28;20034;-74
2022/01/27 08:33:29;;;;;;;57.35;24.30;;;1.80;99.90;;;;;;4981542;28;20372;-75
2022/01/27 08:35:57;;;;;;;60.00;23.17;;;1.90;99.90;;;;;;4979173;28;20030;-75
2022/01/27 08:38:22;;;;;;;56.53;24.27;;;1.90;99.90;;;;;;4983894;28;20041;-75
2022/01/27 08:40:48;;;;;;;62.28;24.75;;;1.90;99.90;;;;;;4988068;28;20026;-74
2022/01/27 08:43:13;;;;;;;53.00;23.73;;;1.90;99.90;;;;;;4982740;28;20026;-75
2022/01/27 08:45:39;;;;;;;52.15;22.55;;;1.90;99.90;;;;;;4989193;28;20022;-75
2022/01/27 08:48:10;;;;;;;54.80;23.00;;;1.90;99.90;;;;;;4985472;28;20027;-75
2022/01/27 08:50:36;;;;;;;61.72;23.40;;;1.90;99.90;;;;;;4986817;28;20049;-75
2022/01/27 08:53:02;;;;;;;57.38;24.15;;;1.90;99.90;;;;;;4976504;28;20453;-73
2022/01/27 08:55:28;;;;;;;55.33;21.77;;;1.90;99.90;;;;;;4988586;28;20520;-74
2022/01/27 08:57:54;;;;;;;57.42;22.08;;;1.80;99.90;;;;;;4986935;28;20034;-75
2022/01/27 09:00:21;;;;;;;62.03;24.27;;;1.80;99.90;;;;;;4977648;28;20030;-75
2022/01/27 09:02:46;;;;;;;59.20;23.23;;;1.80;99.90;;;;;;4973883;28;20034;-75
2022/01/27 09:05:13;;;;;;;59.78;23.63;;;1.80;99.90;;;;;;4974891;28;20122;-75
2022/01/27 09:07:39;;;;;;;56.00;22.50;;;1.80;99.90;;;;;;4976035;28;20049;-75
2022/01/27 09:10:06;;;;;;;55.38;21.90;;;1.80;99.90;;;;;;4974649;28;20494;-75
2022/01/27 09:12:32;;;;;;;57.20;22.90;;;1.80;99.90;;;;;;4981531;28;20022;-74
2022/01/27 09:14:59;;;;;;;56.10;24.67;;;1.80;99.90;;;;;;4978284;28;20088;-75
2022/01/27 09:17:26;;;;;;;55.53;22.65;;;1.90;99.90;;;;;;4981816;28;20374;-75
2022/01/27 09:19:52;;;;;;;54.78;21.67;;;1.90;99.90;;;;;;4982820;28;20368;-76
2022/01/27 09:22:19;;;;;;;57.40;22.17;;;1.90;99.90;;;;;;4973947;28;20044;-75
2022/01/27 09:24:56;;;;;;;54.08;21.67;;;2.00;99.90;;;;;;4987931;28;20068;-74
2022/01/27 09:27:25;;;;;;;55.35;22.95;;;2.00;99.90;;;;;;4976996;28;20027;-75
2022/01/27 09:29:51;;;;;;;55.67;22.05;;;2.00;99.90;;;;;;4972999;28;20047;-76
2022/01/27 09:32:17;;;;;;;56.15;22.95;;;2.00;99.90;;;;;;4955224;28;20058;-76
2022/01/27 09:34:43;;;;;;;53.80;23.02;;;2.10;99.90;;;;;;4965980;28;20043;-75
2022/01/27 09:37:10;;;;;;;56.60;22.27;;;2.10;99.90;;;;;;4963517;28;20568;-75
2022/01/27 09:39:35;;;;;;;49.38;19.85;;;2.10;99.90;;;;;;4958982;28;20046;-75
2022/01/27 09:42:04;;;;;;;52.90;21.35;;;2.10;99.90;;;;;;4957275;28;20446;-75
2022/01/27 09:44:32;;;;;;;56.05;21.63;;;2.20;99.90;;;;;;4967494;28;20034;-75
2022/01/27 09:47:02;;;;;;;52.85;21.25;;;2.20;99.90;;;;;;4960587;28;20077;-76
2022/01/27 09:49:36;;;;;;;54.50;21.67;;;2.20;99.90;;;;;;4963641;28;20030;-75
2022/01/27 09:52:03;;;;;;;53.08;21.08;;;2.30;99.90;;;;;;4955319;28;20041;-75
2022/01/27 09:54:29;;;;;;;57.92;22.65;;;2.30;99.90;;;;;;4956846;28;20028;-76
2022/01/27 09:56:56;;;;;;;47.17;19.65;;;2.30;99.90;;;;;;4959019;28;20080;-75
2022/01/27 09:59:22;;;;;;;49.92;21.02;;;2.40;99.90;;;;;;4956754;28;20500;-75
2022/01/27 10:01:56;;;;;;;49.83;20.92;;;2.40;99.90;;;;;;4955906;28;20685;-75
2022/01/27 10:04:24;;;;;;;52.10;21.52;;;2.40;99.90;;;;;;4952394;28;20157;-76
2022/01/27 10:06:57;;;;;;;50.60;23.60;;;2.40;99.90;;;;;;4951099;28;20735;-75
2022/01/27 10:09:27;;;;;;;59.38;23.45;;;2.50;99.90;;;;;;4957780;28;20038;-75
2022/01/27 10:11:53;;;;;;;52.40;21.88;;;2.50;99.90;;;;;;4962908;28;20037;-75
2022/01/27 10:14:20;;;;;;;51.42;20.58;;;2.50;99.90;;;;;;4954243;28;20054;-75
2022/01/27 10:16:49;;;;;;;50.15;20.77;;;2.50;99.90;;;;;;4956666;28;20398;-75
2022/01/27 10:19:15;;;;;;;48.78;20.10;;;2.50;99.90;;;;;;4954655;28;20102;-75
2022/01/27 10:21:41;;;;;;;49.88;21.90;;;2.60;99.90;;;;;;4958626;28;20121;-75
2022/01/27 10:24:27;;;;;;;54.78;22.30;;;2.60;99.90;;;;;;4956186;28;20090;-76
2022/01/27 10:27:35;;;;;;;52.45;22.25;;;2.60;99.90;;;;;;4956025;28;20114;-75
2022/01/27 10:30:36;;;;;;;52.28;22.02;;;2.60;99.90;;;;;;4966732;28;20051;-76
2022/01/27 10:32:57;;;;;;;58.22;22.70;;;2.70;99.90;;;;;;4974825;28;20034;-75
2022/01/27 10:35:25;;;;;;;51.95;22.02;;;2.70;99.90;;;;;;4977178;28;20459;-76
2022/01/27 10:37:58;;;;;;;49.53;21.75;;;2.70;99.90;;;;;;4981122;28;20081;-78
2022/01/27 10:40:39;;;;;;;50.28;21.50;;;2.70;99.90;;;;;;4978409;28;20034;-76
2022/01/27 10:43:11;;;;;;;51.13;22.35;;;2.70;99.90;;;;;;4971755;28;20302;-76
2022/01/27 10:45:40;;;;;;;40.30;16.55;;;2.70;99.90;;;;;;4984170;28;20046;-76
2022/01/27 10:48:07;;;;;;;49.50;21.42;;;2.70;99.90;;;;;;4980765;28;20382;-75
2022/01/27 10:50:47;;;;;;;48.72;22.52;;;2.70;99.90;;;;;;4983355;28;20019;-74
2022/01/27 10:53:13;;;;;;;45.42;20.88;;;2.70;99.90;;;;;;4974266;28;20160;-75
2022/01/27 10:55:39;;;;;;;47.15;22.00;;;2.70;99.90;;;;;;4977828;28;20502;-75
2022/01/27 10:58:24;;;;;;;52.83;23.05;;;2.70;99.90;;;;;;4974395;28;20037;-74
2022/01/27 11:00:56;;;;;;;56.03;22.90;;;2.70;99.90;;;;;;4980865;28;20282;-74
2022/01/27 11:03:22;;;;;;;53.10;22.48;;;2.70;99.90;;;;;;4969789;28;20062;-75
2022/01/27 11:05:50;;;;;;;59.85;26.17;;;2.70;99.90;;;;;;4976188;28;20284;-75
2022/01/27 11:08:19;;;;;;;48.80;22.80;;;2.80;99.90;;;;;;4977931;28;20041;-74
2022/01/27 11:10:48;;;;;;;48.10;21.40;;;2.80;99.90;;;;;;4979854;28;20035;-74
2022/01/27 11:13:16;;;;;;;47.70;21.48;;;2.80;99.90;;;;;;4978353;28;20081;-75
2022/01/27 11:15:42;;;;;;;47.92;21.58;;;2.80;99.90;;;;;;4980748;28;20482;-75
2022/01/27 11:18:09;;;;;;;51.53;21.73;;;2.90;99.90;;;;;;4982043;28;20034;-75
2022/01/27 11:20:52;;;;;;;53.25;21.65;;;2.80;99.90;;;;;;4975612;28;20057;-74
2022/01/27 11:26:04;;;;;;;46.28;20.65;;;2.90;99.90;;;;;;4980302;28;20084;-75
2022/01/27 11:28:32;;;;;;;48.42;21.73;;;2.90;99.90;;;;;;4981597;28;20019;-75
2022/01/27 11:31:18;;;;;;;49.78;21.17;;;2.90;99.90;;;;;;4980875;28;20513;-75
2022/01/27 11:33:57;;;;;;;44.28;20.20;;;2.90;99.90;;;;;;4980716;28;20404;-75
2022/01/27 11:36:24;;;;;;;49.08;20.83;;;2.90;99.90;;;;;;4983175;28;20034;-75
2022/01/27 11:38:50;;;;;;;48.72;20.98;;;2.90;99.90;;;;;;4292246;28;10001084;-78
2022/01/27 11:41:44;;;;;;;46.63;20.10;;;2.90;99.90;;;;;;4988155;28;20181;-76
2022/01/27 11:44:29;;;;;;;49.15;20.60;;;2.90;99.90;;;;;;4986386;28;20113;-72
2022/01/27 11:50:31;;;;;;;50.47;20.20;;;3.10;99.90;;;;;;4990007;28;20048;-73
2022/01/27 11:52:52;;;;;;;51.65;20.35;;;3.10;99.90;;;;;;4995535;28;20570;-73
2022/01/27 11:55:23;;;;;;;49.15;21.15;;;3.10;99.90;;;;;;4988958;28;20085;-72
2022/01/27 11:57:50;;;;;;;45.03;20.45;;;3.20;99.90;;;;;;4996786;28;20240;-72
2022/01/27 12:00:28;;;;;;;46.75;21.88;;;3.10;99.90;;;;;;4985517;28;20050;-72
2022/01/27 12:02:56;;;;;;;49.05;21.70;;;3.20;99.90;;;;;;4989023;28;20505;-73
2022/01/27 12:05:25;;;;;;;43.05;19.63;;;3.20;99.90;;;;;;4985788;28;20057;-72
2022/01/27 12:08:11;;;;;;;45.88;20.45;;;3.20;99.90;;;;;;4985401;28;20034;-72
2022/01/27 12:10:58;;;;;;;53.65;25.02;;;3.30;99.90;;;;;;4984276;28;20042;-72
2022/01/27 12:13:25;;;;;;;45.25;20.35;;;3.30;99.90;;;;;;4982888;28;20038;-73
2022/01/27 12:18:56;;;;;;;;;;;3.40;99.90;;;;;;4982263;28;20026;-73
2022/01/27 12:21:35;;;;;;;47.72;20.85;;;3.30;99.90;;;;;;4976554;28;19922;-73
2022/01/27 12:24:23;;;;;;;45.53;20.38;;;3.40;99.90;;;;;;4982461;28;20490;-72
2022/01/27 12:27:08;;;;;;;48.28;21.45;;;3.40;99.90;;;;;;4975955;28;20026;-75
2022/01/27 12:29:45;;;;;;;46.25;21.45;;;3.50;99.90;;;;;;4978503;28;20061;-73
2022/01/27 12:32:17;;;;;;;40.80;19.98;;;3.50;99.90;;;;;;4986225;28;20054;-73
2022/01/27 12:34:51;;;;;;;42.65;20.40;;;3.50;99.90;;;;;;4980361;28;20623;-73
2022/01/27 12:37:23;;;;;;;43.33;19.27;;;3.50;99.90;;;;;;4982594;28;20032;-73
2022/01/27 12:39:52;;;;;;;43.10;19.83;;;3.50;99.90;;;;;;4984165;28;20109;-73
2022/01/27 12:42:18;;;;;;;43.78;19.70;;;3.50;99.90;;;;;;4981005;28;20038;-73
2022/01/27 12:44:56;;;;;;;37.58;18.33;;;3.50;99.90;;;;;;4985097;28;20022;-73
2022/01/27 12:47:23;;;;;;;39.78;17.73;;;3.50;99.90;;;;;;4980174;28;20627;-73
2022/01/27 12:50:02;;;;;;;45.38;20.73;;;3.60;99.90;;;;;;4976643;28;20296;-72
2022/01/27 12:52:30;;;;;;;41.90;20.00;;;3.60;99.90;;;;;;4982557;28;20038;-73
2022/01/27 12:54:55;;;;;;;44.97;21.23;;;3.60;99.90;;;;;;4981086;28;20084;-72
2022/01/27 12:57:24;;;;;;;41.30;21.15;;;3.60;99.90;;;;;;4978372;28;20046;-72
2022/01/27 12:59:52;;;;;;;38.60;18.98;;;3.60;99.90;;;;;;4978542;28;20038;-72
2022/01/27 13:02:19;;;;;;;39.53;19.08;;;3.60;99.90;;;;;;4982276;28;20077;-74
2022/01/27 13:04:46;;;;;;;35.33;17.02;;;3.70;99.90;;;;;;4976932;28;20031;-72
2022/01/27 13:07:11;;;;;;;33.25;17.20;;;3.70;99.90;;;;;;4977446;28;20038;-72
2022/01/27 13:09:39;;;;;;;35.15;18.10;;;3.70;99.90;;;;;;4980497;28;20577;-73
2022/01/27 13:12:15;;;;;;;38.20;19.42;;;3.80;99.90;;;;;;4978341;28;20034;-72
2022/01/27 13:14:51;;;;;;;37.55;18.63;;;3.80;99.90;;;;;;4972116;28;20022;-72
2022/01/27 13:17:29;;;;;;;34.45;18.42;;;3.90;99.90;;;;;;4974481;28;20376;-76
2022/01/27 13:19:59;;;;;;;35.03;16.88;;;3.90;99.90;;;;;;4975575;28;20031;-74
2022/01/27 13:22:33;;;;;;;36.83;17.67;;;3.90;99.90;;;;;;4982267;28;20031;-75
2022/01/27 13:24:58;;;;;;;34.92;17.85;;;3.90;99.90;;;;;;4968801;28;20084;-75
2022/01/27 13:27:24;;;;;;;35.92;17.60;;;4.00;99.90;;;;;;4979121;28;20030;-75